createdAt,value
2022-08-28T00:00:32.687Z,99495.47
2022-08-28T00:05:32.266Z,99492.25
2022-08-28T00:10:31.059Z,99498.66
2022-08-28T00:15:30.295Z,99496.28
2022-08-28T00:17:58.655Z,99505.72
2022-08-28T00:20:29.285Z,99500.97
2022-08-28T00:22:57.562Z,99493.25
2022-08-28T00:25:27.699Z,99493.81
2022-08-28T00:27:57.584Z,99501.03
2022-08-28T00:30:29.562Z,99497.34
2022-08-28T00:33:00.665Z,99495.22
2022-08-28T00:35:30.316Z,99496.56
2022-08-28T00:37:58.255Z,99503.44
2022-08-28T00:40:32.833Z,99506.22
2022-08-28T00:43:01.516Z,99507.81
2022-08-28T00:45:30.546Z,99497.69
2022-08-28T00:47:58.605Z,99517.72
2022-08-28T00:50:30.159Z,99508.72
2022-08-28T00:53:00.864Z,99510.88
2022-08-28T00:58:00.578Z,99499.16
2022-08-28T01:00:31.711Z,99508.28
2022-08-28T01:02:59.959Z,99502.16
2022-08-28T01:05:31.394Z,99504.03
2022-08-28T01:10:31.166Z,99505.16
2022-08-28T01:13:00.047Z,99503.81
2022-08-28T01:15:31.298Z,99507.81
2022-08-28T01:18:07.829Z,99506.22
2022-08-28T01:23:20.068Z,99503.56
2022-08-28T01:28:18.578Z,99501.97
2022-08-28T01:30:49.111Z,99498.75
2022-08-28T01:33:17.307Z,99498.22
2022-08-28T01:35:48.635Z,99504.09
2022-08-28T01:38:20.229Z,99503.31
2022-08-28T01:40:57.835Z,99504.91
2022-08-28T01:43:27.651Z,99500.66
2022-08-28T01:46:01.087Z,99497.75
2022-08-28T01:48:31.290Z,99492.94
2022-08-28T01:50:59.270Z,99496.44
2022-08-28T01:53:32.981Z,99502.31
2022-08-28T01:56:04.756Z,99501.25
2022-08-28T01:58:37.902Z,99504.19
2022-08-28T02:03:37.603Z,99509.25
2022-08-28T02:06:06.191Z,99510.56
2022-08-28T02:08:34.054Z,99512.16
2022-08-28T02:11:03.504Z,99515.88
2022-08-28T02:13:31.399Z,99515.59
2022-08-28T02:15:59.365Z,99514.81
2022-08-28T02:18:27.229Z,99516.44
2022-08-28T02:20:55.066Z,99514.28
2022-08-28T02:23:23.019Z,99518.56
2022-08-28T02:25:50.892Z,99514.28
2022-08-28T02:28:20.259Z,99515.88
2022-08-28T02:30:48.493Z,99510.81
2022-08-28T02:33:16.476Z,99512.44
2022-08-28T02:38:12.667Z,99515.38
2022-08-28T02:40:42.114Z,99516.97
2022-08-28T02:43:09.917Z,99516.97
2022-08-28T02:45:39.162Z,99519.13
2022-08-28T02:48:16.721Z,99512.69
2022-08-28T02:50:46.266Z,99517.50
2022-08-28T02:53:14.945Z,99514.84
2022-08-28T02:58:10.915Z,99512.97
2022-08-28T03:03:08.728Z,99513.78
2022-08-28T03:05:36.526Z,99511.38
2022-08-28T03:08:05.250Z,99514.56
2022-08-28T03:17:58.255Z,99509.25
2022-08-28T03:20:26.062Z,99507.13
2022-08-28T03:23:11.543Z,99514.28
2022-08-28T03:25:39.396Z,99513.50
2022-08-28T03:28:07.296Z,99511.66
2022-08-28T03:30:35.192Z,99515.91
2022-08-28T03:33:04.775Z,99514.59
2022-08-28T03:38:00.762Z,99518.31
2022-08-28T03:40:28.615Z,99518.31
2022-08-28T03:42:56.519Z,99520.72
2022-08-28T03:45:24.421Z,99514.84
2022-08-28T03:50:22.925Z,99517.78
2022-08-28T03:52:52.603Z,99519.09
2022-08-28T03:55:20.661Z,99512.72
2022-08-28T03:57:48.521Z,99517.25
2022-08-28T04:02:46.244Z,99518.84
2022-08-28T04:12:41.331Z,99523.59
2022-08-28T04:15:10.849Z,99526.25
2022-08-28T04:17:39.505Z,99523.59
2022-08-28T04:20:09.888Z,99525.72
2022-08-28T04:22:38.297Z,99528.16
2022-08-28T04:25:08.951Z,99540.94
2022-08-28T04:27:37.004Z,99531.34
2022-08-28T04:32:35.491Z,99537.19
2022-08-28T04:35:03.793Z,99540.13
2022-08-28T04:40:00.172Z,99543.06
2022-08-28T04:42:29.523Z,99546.25
2022-08-28T04:47:25.958Z,99542.53
2022-08-28T04:49:54.054Z,99538.81
2022-08-28T04:54:50.749Z,99532.97
2022-08-28T04:57:18.560Z,99543.88
2022-08-28T04:59:47.899Z,99547.03
2022-08-28T05:02:16.398Z,99541.97
2022-08-28T05:04:44.272Z,99543.31
2022-08-28T05:07:12.079Z,99550.78
2022-08-28T05:09:39.923Z,99548.91
2022-08-28T05:12:07.848Z,99553.72
2022-08-28T05:14:36.744Z,99555.84
2022-08-28T05:17:06.271Z,99555.03
2022-08-28T05:19:34.391Z,99556.91
2022-08-28T05:26:58.123Z,99559.81
2022-08-28T05:29:25.959Z,99568.03
2022-08-28T05:39:19.299Z,99577.38
2022-08-28T05:41:47.278Z,99580.78
2022-08-28T05:46:48.544Z,99581.22
2022-08-28T05:49:17.909Z,99586.78
2022-08-28T05:56:46.091Z,99593.75
2022-08-28T05:59:14.743Z,99590.53
2022-08-28T06:01:45.098Z,99592.13
2022-08-28T06:04:17.768Z,99589.72
2022-08-28T06:09:20.312Z,99596.31
2022-08-28T06:11:48.900Z,99588.56
2022-08-28T06:14:20.755Z,99591.75
2022-08-28T06:16:50.879Z,99588.84
2022-08-28T06:19:18.965Z,99593.84
2022-08-28T06:26:44.811Z,99595.25
2022-08-28T06:29:15.668Z,99602.63
2022-08-28T06:34:12.167Z,99605.38
2022-08-28T06:36:42.215Z,99607.78
2022-08-28T06:39:14.518Z,99603.47
2022-08-28T06:44:13.557Z,99602.56
2022-08-28T06:46:42.276Z,99610.00
2022-08-28T06:49:10.162Z,99608.16
2022-08-28T06:51:38.410Z,99613.38
2022-08-28T06:54:07.030Z,99613.91
2022-08-28T06:56:36.779Z,99605.72
2022-08-28T06:59:05.139Z,99613.72
2022-08-28T07:01:35.749Z,99612.00
2022-08-28T07:04:07.554Z,99609.56
2022-08-28T07:06:37.434Z,99615.97
2022-08-28T07:09:07.080Z,99618.03
2022-08-28T07:11:37.757Z,99616.38
2022-08-28T07:14:06.493Z,99617.84
2022-08-28T07:21:38.741Z,99615.69
2022-08-28T07:26:37.256Z,99624.53
2022-08-28T07:29:10.819Z,99620.56
2022-08-28T07:31:41.455Z,99624.06
2022-08-28T07:34:10.738Z,99631.38
2022-08-28T07:36:39.343Z,99624.97
2022-08-28T07:39:08.673Z,99625.94
2022-08-28T07:41:40.371Z,99631.19
2022-08-28T07:44:27.081Z,99626.38
2022-08-28T07:46:55.846Z,99627.44
2022-08-28T07:49:24.458Z,99631.34
2022-08-28T07:51:54.147Z,99640.88
2022-08-28T07:54:22.682Z,99640.69
2022-08-28T07:56:52.743Z,99643.53
2022-08-28T07:59:22.091Z,99646.03
2022-08-28T08:01:51.877Z,99653.97
2022-08-28T08:04:21.158Z,99654.56
2022-08-28T08:09:22.224Z,99647.53
2022-08-28T08:11:51.539Z,99654.75
2022-08-28T08:14:19.442Z,99651.06
2022-08-28T08:16:48.679Z,99653.25
2022-08-28T08:19:18.935Z,99659.38
2022-08-28T08:21:54.745Z,99662.41
2022-08-28T08:24:26.210Z,99665.81
2022-08-28T08:26:59.624Z,99667.31
2022-08-28T08:29:31.399Z,99667.13
2022-08-28T08:32:05.596Z,99657.84
2022-08-28T08:34:35.058Z,99665.81
2022-08-28T08:37:02.902Z,99668.13
2022-08-28T08:39:31.771Z,99659.56
2022-08-28T08:42:03.866Z,99658.53
2022-08-28T08:44:34.863Z,99662.69
2022-08-28T08:47:14.982Z,99664.56
2022-08-28T08:49:53.018Z,99668.78
2022-08-28T08:52:36.016Z,99666.25
2022-08-28T08:55:17.726Z,99661.56
2022-08-28T08:57:52.357Z,99662.28
2022-08-28T09:00:21.692Z,99658.84
2022-08-28T09:02:57.172Z,99668.50
2022-08-28T09:08:03.641Z,99667.47
2022-08-28T09:10:37.911Z,99665.25
2022-08-28T09:13:20.565Z,99668.16
2022-08-28T09:15:50.896Z,99674.22
2022-08-28T09:18:22.966Z,99662.91
2022-08-28T09:20:52.417Z,99670.19
2022-08-28T09:23:20.327Z,99678.00
2022-08-28T09:25:53.056Z,99667.38
2022-08-28T09:28:25.677Z,99676.56
2022-08-28T09:31:01.176Z,99668.81
2022-08-28T09:33:35.188Z,99671.88
2022-08-28T09:36:28.314Z,99678.41
2022-08-28T09:39:08.390Z,99681.53
2022-08-28T09:41:57.821Z,99675.19
2022-08-28T09:44:27.217Z,99683.28
2022-08-28T09:46:55.174Z,99679.38
2022-08-28T09:49:26.381Z,99671.41
2022-08-28T09:51:54.813Z,99673.59
2022-08-28T09:54:30.190Z,99674.69
2022-08-28T09:56:58.322Z,99674.28
2022-08-28T09:59:30.002Z,99673.34
2022-08-28T10:02:22.403Z,99681.03
2022-08-28T10:05:02.288Z,99678.50
2022-08-28T10:07:40.620Z,99667.75
2022-08-28T10:10:22.088Z,99680.06
2022-08-28T10:13:03.541Z,99676.00
2022-08-28T10:15:45.020Z,99670.41
2022-08-28T10:18:30.540Z,99681.19
2022-08-28T10:21:08.011Z,99670.38
2022-08-28T10:23:45.021Z,99671.59
2022-08-28T10:26:25.761Z,99670.72
2022-08-28T10:29:03.920Z,99671.03
2022-08-28T10:34:22.892Z,99669.13
2022-08-28T10:37:01.027Z,99666.47
2022-08-28T10:39:42.698Z,99664.88
2022-08-28T10:42:10.774Z,99665.19
2022-08-28T10:44:45.456Z,99668.59
2022-08-28T10:47:16.051Z,99667.06
2022-08-28T10:49:47.705Z,99668.41
2022-08-28T10:52:20.868Z,99662.97
2022-08-28T10:57:36.207Z,99658.69
2022-08-28T11:00:12.176Z,99659.34
2022-08-28T11:02:43.421Z,99671.50
2022-08-28T11:05:12.055Z,99665.19
2022-08-28T11:10:21.560Z,99653.28
2022-08-28T11:12:52.532Z,99659.91
2022-08-28T11:15:42.577Z,99660.03
2022-08-28T11:18:43.540Z,99656.19
2022-08-28T11:21:17.572Z,99650.56
2022-08-28T11:23:51.402Z,99653.09
2022-08-28T11:26:31.320Z,99652.66
2022-08-28T11:29:00.962Z,99649.97
2022-08-28T11:31:46.652Z,99650.78
2022-08-28T11:34:53.211Z,99641.13
2022-08-28T11:37:40.846Z,99644.56
2022-08-28T11:40:19.327Z,99642.25
2022-08-28T11:42:48.839Z,99645.19
2022-08-28T11:45:22.228Z,99638.69
2022-08-28T11:47:56.808Z,99641.19
2022-08-28T11:53:34.715Z,99640.56
2022-08-28T11:56:35.991Z,99644.41
2022-08-28T11:59:37.397Z,99637.47
2022-08-28T12:02:46.208Z,99636.63
2022-08-28T12:05:51.601Z,99639.53
2022-08-28T12:09:11.706Z,99631.81
2022-08-28T12:12:10.054Z,99650.56
2022-08-28T12:15:09.609Z,99641.75
2022-08-28T12:17:47.049Z,99640.06
2022-08-28T12:20:23.983Z,99631.97
2022-08-28T12:22:53.697Z,99635.41
2022-08-28T12:25:28.882Z,99627.28
2022-08-28T12:30:30.923Z,99629.59
2022-08-28T12:35:43.199Z,99621.31
2022-08-28T12:38:20.309Z,99626.38
2022-08-28T12:43:29.469Z,99618.31
2022-08-28T12:48:31.661Z,99620.28
2022-08-28T12:51:03.119Z,99629.66
2022-08-28T12:53:40.657Z,99623.16
2022-08-28T12:56:10.759Z,99622.25
2022-08-28T12:58:41.452Z,99622.91
2022-08-28T13:01:14.318Z,99622.75
2022-08-28T13:03:44.981Z,99614.63
2022-08-28T13:06:13.732Z,99613.75
2022-08-28T13:08:41.988Z,99614.75
2022-08-28T13:11:09.959Z,99611.66
2022-08-28T13:13:46.658Z,99602.50
2022-08-28T13:16:34.895Z,99612.59
2022-08-28T13:19:27.441Z,99608.81
2022-08-28T13:22:00.459Z,99605.41
2022-08-28T13:24:38.602Z,99601.13
2022-08-28T13:27:24.676Z,99602.56
2022-08-28T13:30:27.545Z,99593.38
2022-08-28T13:32:58.104Z,99590.97
2022-08-28T13:35:38.900Z,99598.19
2022-08-28T13:38:10.106Z,99589.59
2022-08-28T13:40:57.504Z,99589.13
2022-08-28T13:43:29.046Z,99588.59
2022-08-28T13:45:58.865Z,99580.00
2022-08-28T13:48:28.888Z,99584.97
2022-08-28T13:51:03.546Z,99575.22
2022-08-28T13:53:33.123Z,99570.34
2022-08-28T13:56:01.564Z,99569.25
2022-08-28T13:58:29.627Z,99575.31
2022-08-28T14:00:59.218Z,99570.16
2022-08-28T14:03:38.886Z,99561.41
2022-08-28T14:06:09.275Z,99559.03
2022-08-28T14:08:37.156Z,99567.66
2022-08-28T14:11:05.689Z,99571.56
2022-08-28T14:13:33.485Z,99575.06
2022-08-28T14:16:05.725Z,99573.72
2022-08-28T14:18:34.140Z,99567.00
2022-08-28T14:21:01.999Z,99575.84
2022-08-28T14:23:29.811Z,99573.44
2022-08-28T14:25:58.297Z,99570.38
2022-08-28T14:28:26.102Z,99570.84
2022-08-28T14:30:53.985Z,99573.81
2022-08-28T14:33:23.207Z,99572.78
2022-08-28T14:35:51.054Z,99575.63
2022-08-28T14:38:19.089Z,99570.56
2022-08-28T14:40:46.976Z,99566.72
2022-08-28T14:43:15.981Z,99570.47
2022-08-28T14:45:45.967Z,99568.72
2022-08-28T14:48:14.775Z,99566.69
2022-08-28T14:50:46.248Z,99566.31
2022-08-28T14:55:44.689Z,99556.84
2022-08-28T14:58:13.512Z,99555.69
2022-08-28T15:00:43.500Z,99559.19
2022-08-28T15:03:12.480Z,99550.47
2022-08-28T15:05:41.142Z,99556.59
2022-08-28T15:08:11.785Z,99551.88
2022-08-28T15:10:40.702Z,99550.91
2022-08-28T15:13:10.302Z,99549.69
2022-08-28T15:15:39.551Z,99557.13
2022-08-28T15:20:38.984Z,99548.97
2022-08-28T15:23:07.110Z,99546.72
2022-08-28T15:25:36.576Z,99544.63
2022-08-28T15:28:04.919Z,99542.03
2022-08-28T15:30:33.157Z,99550.84
2022-08-28T15:35:30.409Z,99541.34
2022-08-28T15:37:58.630Z,99543.31
2022-08-28T15:40:44.100Z,99545.44
2022-08-28T15:43:13.605Z,99537.47
2022-08-28T15:45:42.886Z,99534.03
2022-08-28T15:48:12.232Z,99532.84
2022-08-28T15:50:42.041Z,99535.13
2022-08-28T15:53:10.742Z,99535.84
2022-08-28T15:55:38.728Z,99541.47
2022-08-28T15:58:13.855Z,99542.19
2022-08-28T16:00:43.998Z,99534.72
2022-08-28T16:03:12.155Z,99534.44
2022-08-28T16:05:40.669Z,99538.38
2022-08-28T16:10:37.478Z,99537.56
2022-08-28T16:13:06.762Z,99534.22
2022-08-28T16:15:35.173Z,99539.03
2022-08-28T16:18:08.879Z,99538.47
2022-08-28T16:20:37.504Z,99539.25
2022-08-28T16:23:05.477Z,99540.00
2022-08-28T16:25:33.290Z,99538.78
2022-08-28T16:28:01.131Z,99547.41
2022-08-28T16:30:28.988Z,99538.19
2022-08-28T16:35:26.140Z,99532.66
2022-08-28T16:37:54.002Z,99538.28
2022-08-28T16:40:21.989Z,99534.19
2022-08-28T16:42:51.619Z,99535.69
2022-08-28T16:45:19.954Z,99544.88
2022-08-28T16:47:48.224Z,99531.50
2022-08-28T16:50:17.336Z,99537.56
2022-08-28T16:52:46.635Z,99536.13
2022-08-28T16:57:43.075Z,99542.56
2022-08-28T17:00:13.569Z,99543.50
2022-08-28T17:02:41.782Z,99547.78
2022-08-28T17:05:10.258Z,99540.50
2022-08-28T17:07:39.810Z,99542.81
2022-08-28T17:10:12.176Z,99539.81
2022-08-28T17:12:40.139Z,99544.94
2022-08-28T17:15:09.621Z,99538.34
2022-08-28T17:17:39.506Z,99546.56
2022-08-28T17:20:29.558Z,99545.66
2022-08-28T17:25:27.714Z,99550.75
2022-08-28T17:27:56.025Z,99546.78
2022-08-28T17:30:24.127Z,99544.41
2022-08-28T17:32:52.012Z,99546.28
2022-08-28T17:35:20.372Z,99551.22
2022-08-28T17:40:19.343Z,99549.34
2022-08-28T17:42:53.608Z,99553.44
2022-08-28T17:45:21.529Z,99562.75
2022-08-28T17:47:49.604Z,99561.63
2022-08-28T17:50:17.452Z,99563.88
2022-08-28T17:52:45.270Z,99561.63
2022-08-28T17:55:13.174Z,99562.34
2022-08-28T17:57:41.176Z,99570.09
2022-08-28T18:00:14.236Z,99574.03
2022-08-28T18:02:42.053Z,99576.00
2022-08-28T18:05:12.112Z,99581.09
2022-08-28T18:07:40.188Z,99584.41
2022-08-28T18:10:09.599Z,99577.84
2022-08-28T18:12:37.582Z,99587.38
2022-08-28T18:17:37.746Z,99594.16
2022-08-28T18:20:06.745Z,99599.50
2022-08-28T18:22:34.678Z,99606.75
2022-08-28T18:25:04.099Z,99610.66
2022-08-28T18:27:34.405Z,99608.19
2022-08-28T18:30:02.676Z,99615.78
2022-08-28T18:34:59.793Z,99627.47
2022-08-28T18:37:27.655Z,99632.06
2022-08-28T18:39:55.520Z,99630.47
2022-08-28T18:42:24.312Z,99639.09
2022-08-28T18:44:52.131Z,99637.31
2022-08-28T18:47:19.977Z,99646.25
2022-08-28T18:49:47.826Z,99648.72
2022-08-28T18:52:17.059Z,99647.41
2022-08-28T18:54:44.846Z,99652.38
2022-08-28T18:57:14.124Z,99652.69
2022-08-28T18:59:41.954Z,99664.50
2022-08-28T19:02:09.902Z,99660.81
2022-08-28T19:04:38.041Z,99674.41
2022-08-28T19:07:06.314Z,99670.41
2022-08-28T19:09:35.570Z,99671.00
2022-08-28T19:12:04.259Z,99677.75
2022-08-28T19:14:32.115Z,99683.19
2022-08-28T19:17:00.810Z,99681.50
2022-08-28T19:19:29.128Z,99683.47
2022-08-28T19:21:57.189Z,99684.06
2022-08-28T19:24:26.612Z,99684.44
2022-08-28T19:26:56.011Z,99692.88
2022-08-28T19:29:23.913Z,99688.94
2022-08-28T19:31:52.441Z,99691.31
2022-08-28T19:34:20.646Z,99701.03
2022-08-28T19:36:48.590Z,99685.84
2022-08-28T19:39:16.635Z,99702.00
2022-08-28T19:41:45.166Z,99706.00
2022-08-28T19:44:15.025Z,99700.97
2022-08-28T19:46:43.043Z,99711.97
2022-08-28T19:49:11.378Z,99706.25
2022-08-28T19:51:41.225Z,99718.38
2022-08-28T19:54:11.140Z,99723.03
2022-08-28T19:56:39.986Z,99719.53
2022-08-28T19:59:08.898Z,99726.22
2022-08-28T20:01:40.231Z,99730.31
2022-08-28T20:04:09.498Z,99732.78
2022-08-28T20:06:38.115Z,99728.25
2022-08-28T20:09:12.050Z,99736.59
2022-08-28T20:14:10.082Z,99747.41
2022-08-28T20:21:42.707Z,99763.66
2022-08-28T20:24:13.581Z,99765.31
2022-08-28T20:26:42.162Z,99768.06
2022-08-28T20:29:11.226Z,99766.72
2022-08-28T20:31:42.217Z,99764.69
2022-08-28T20:34:10.474Z,99764.41
2022-08-28T20:36:38.665Z,99764.41
2022-08-28T20:39:09.329Z,99758.50
2022-08-28T20:41:38.439Z,99770.34
2022-08-28T20:44:07.762Z,99771.94
2022-08-28T20:46:40.766Z,99773.56
2022-08-28T20:49:11.935Z,99764.53
2022-08-28T20:51:57.711Z,99767.22
2022-08-28T20:56:58.847Z,99763.56
2022-08-28T20:59:34.379Z,99774.25
2022-08-28T21:02:10.417Z,99768.91
2022-08-28T21:04:41.261Z,99777.53
2022-08-28T21:07:09.681Z,99769.53
2022-08-28T21:12:25.640Z,99770.66
2022-08-28T21:14:53.520Z,99776.56
2022-08-28T21:17:30.195Z,99780.09
2022-08-28T21:20:03.005Z,99781.38
2022-08-28T21:22:35.287Z,99791.31
2022-08-28T21:25:04.403Z,99794.22
2022-08-28T21:27:32.309Z,99799.06
2022-08-28T21:30:01.375Z,99794.81
2022-08-28T21:32:32.685Z,99798.28
2022-08-28T21:35:03.047Z,99804.69
2022-08-28T21:37:31.363Z,99810.84
2022-08-28T21:42:27.822Z,99799.34
2022-08-28T21:44:55.607Z,99795.91
2022-08-28T21:47:24.533Z,99797.22
2022-08-28T21:49:53.712Z,99798.59
2022-08-28T21:52:25.421Z,99805.53
2022-08-28T21:54:58.009Z,99804.47
2022-08-28T21:57:26.657Z,99801.53
2022-08-28T21:59:55.451Z,99806.03
2022-08-28T22:02:23.577Z,99801.00
2022-08-28T22:04:51.636Z,99810.03
2022-08-28T22:07:20.648Z,99810.84
2022-08-28T22:09:50.780Z,99807.09
2022-08-28T22:12:18.890Z,99821.25
2022-08-28T22:14:47.093Z,99822.84
2022-08-28T22:17:16.323Z,99817.25
2022-08-28T22:19:46.605Z,99812.63
2022-08-28T22:22:32.703Z,99818.28
2022-08-28T22:25:01.966Z,99819.88
2022-08-28T22:27:31.900Z,99824.09
2022-08-28T22:29:59.965Z,99827.06
2022-08-28T22:32:28.057Z,99823.03
2022-08-28T22:34:56.325Z,99820.66
2022-08-28T22:37:25.865Z,99828.38
2022-08-28T22:39:53.973Z,99818.78
2022-08-28T22:42:23.242Z,99825.75
2022-08-28T22:44:51.095Z,99819.88
2022-08-28T22:47:19.147Z,99826.78
2022-08-28T22:49:47.053Z,99825.16
2022-08-28T22:52:15.393Z,99820.88
2022-08-28T22:54:43.322Z,99821.97
2022-08-28T22:57:11.179Z,99823.28
2022-08-28T22:59:40.449Z,99825.16
2022-08-28T23:02:08.365Z,99824.84
2022-08-28T23:04:36.226Z,99821.38
2022-08-28T23:07:04.089Z,99824.31
2022-08-28T23:12:00.096Z,99818.97
2022-08-28T23:14:28.271Z,99828.25
2022-08-28T23:16:57.503Z,99813.31
2022-08-28T23:19:25.667Z,99804.44
2022-08-28T23:21:54.294Z,99816.41
2022-08-28T23:24:22.094Z,99818.00
2022-08-28T23:29:17.892Z,99821.66
2022-08-28T23:36:43.491Z,99821.09
2022-08-28T23:41:40.620Z,99822.94
2022-08-28T23:44:09.637Z,99824.22
2022-08-28T23:46:41.278Z,99825.75
2022-08-28T23:49:09.739Z,99826.19
2022-08-28T23:51:39.543Z,99822.22
2022-08-28T23:54:08.422Z,99817.16
2022-08-28T23:56:37.130Z,99828.00
